Time;durP1;ratioP1;P1;durP2;ratioP2;P2;SDS_P1;SDS_P2;PMS_P1;PMS_P2;Temp;Humidity;BMP_temperature;BMP_pressure;BME280_temperature;BME280_humidity;BME280_pressure;Samples;Min_cycle;Max_cycle;Signal;HPM_P1;HPM_P2
2021/04/09 00:00:55;;;;;;;15.70;8.40;;;;;;;2.44;74.03;101048.24;105731;1105;78427;-71
2021/04/09 00:03:04;;;;;;;15.60;7.90;;;;;;;2.37;74.15;101053.20;105101;1107;79055;-71
2021/04/09 00:05:14;;;;;;;15.30;8.80;;;;;;;2.30;74.14;101054.66;105771;1105;76952;-72
2021/04/09 00:07:23;;;;;;;15.80;8.70;;;;;;;2.21;74.38;101051.86;105742;1105;77236;-72
2021/04/09 00:09:28;;;;;;;13.10;7.90;;;;;;;2.15;74.11;101057.66;105741;1104;78113;-72
2021/04/09 00:11:33;;;;;;;14.50;8.30;;;;;;;2.08;74.15;101056.45;105775;1104;77169;-83
2021/04/09 00:13:38;;;;;;;13.10;8.10;;;;;;;2.03;74.30;101053.30;105771;1105;77985;-83
2021/04/09 00:15:43;;;;;;;13.50;8.50;;;;;;;2.02;74.77;101056.92;105732;1105;78944;-72
2021/04/09 00:17:48;;;;;;;15.70;8.60;;;;;;;2.00;74.59;101061.53;105721;1104;78351;-72
2021/04/09 00:19:53;;;;;;;18.60;9.20;;;;;;;1.97;74.64;101065.28;105662;1105;78168;-72
2021/04/09 00:21:58;;;;;;;14.90;9.50;;;;;;;1.91;74.33;101064.89;105769;1105;78186;-82
2021/04/09 00:24:04;;;;;;;17.00;8.50;;;;;;;1.83;74.52;101067.30;105870;1105;78706;-82
2021/04/09 00:26:09;;;;;;;17.10;9.50;;;;;;;1.82;74.76;101071.77;105740;1106;77340;-73
2021/04/09 00:28:17;;;;;;;14.90;9.10;;;;;;;1.76;75.32;101073.09;105724;1107;77065;-71
2021/04/09 00:30:27;;;;;;;17.90;10.30;;;;;;;1.71;75.30;101063.74;105689;1105;76961;-78
2021/04/09 00:32:32;;;;;;;17.20;10.20;;;;;;;1.64;75.03;101075.84;105736;1104;79617;-79
2021/04/09 00:34:37;;;;;;;17.20;10.60;;;;;;;1.61;75.30;101071.59;105762;1104;78075;-79
2021/04/09 00:36:43;;;;;;;21.80;12.20;;;;;;;1.66;75.16;101065.91;105762;1105;78187;-79
2021/04/09 00:38:48;;;;;;;17.80;10.80;;;;;;;1.67;75.50;101079.13;105738;1105;79024;-79
2021/04/09 00:40:53;;;;;;;19.30;11.60;;;;;;;1.65;75.18;101067.72;105724;1104;79850;-79
2021/04/09 00:43:03;;;;;;;20.80;11.20;;;;;;;1.63;75.07;101077.65;105726;1104;78456;-80
2021/04/09 00:45:11;;;;;;;21.70;11.40;;;;;;;1.57;75.66;101077.25;105709;1105;77834;-79
2021/04/09 00:47:16;;;;;;;21.40;11.30;;;;;;;1.53;75.55;101084.64;105740;1105;77413;-79
2021/04/09 00:49:21;;;;;;;19.80;11.50;;;;;;;1.48;75.66;101081.48;105764;1105;78483;-79
2021/04/09 00:51:26;;;;;;;18.60;12.10;;;;;;;1.45;75.33;101081.70;105762;1104;77406;-79
2021/04/09 00:53:33;;;;;;;22.10;12.20;;;;;;;1.45;75.57;101073.72;105732;1104;77188;-79
2021/04/09 00:55:38;;;;;;;20.20;12.30;;;;;;;1.52;75.47;101082.08;105670;1105;78561;-80
2021/04/09 00:57:48;;;;;;;24.40;13.20;;;;;;;1.49;75.68;101080.50;105753;1105;78507;-79
2021/04/09 00:59:53;;;;;;;22.30;12.70;;;;;;;1.45;75.37;101084.37;104956;1108;78322;-79
2021/04/09 01:01:58;;;;;;;19.80;12.00;;;;;;;1.43;75.44;101080.95;105766;1105;78970;-78
2021/04/09 01:04:03;;;;;;;25.10;13.40;;;;;;;1.40;75.42;101089.16;105731;1105;78341;-79
2021/04/09 01:06:09;;;;;;;21.20;12.00;;;;;;;1.38;75.75;101088.43;105776;1105;77581;-69
2021/04/09 01:08:15;;;;;;;21.00;11.90;;;;;;;1.38;76.06;101088.43;105729;1105;77293;-69
2021/04/09 01:10:39;;;;;;;24.80;13.10;;;;;;;1.40;75.41;101091.82;105754;1104;77575;-70
2021/04/09 01:12:44;;;;;;;23.80;13.40;;;;;;;1.40;75.73;101080.35;105732;1104;78707;-70
2021/04/09 01:14:49;;;;;;;26.10;13.70;;;;;;;1.39;75.54;101089.28;105731;1104;79278;-71
2021/04/09 01:17:03;;;;;;;29.70;13.10;;;;;;;1.36;75.57;101089.51;105760;1104;77752;-75
2021/04/09 01:19:48;;;;;;;23.70;12.90;;;;;;;1.34;75.89;101089.64;105759;1104;78797;-75
2021/04/09 01:21:58;;;;;;;21.80;12.40;;;;;;;1.34;75.58;101089.64;105742;1105;77668;-76
2021/04/09 01:24:32;;;;;;;27.10;11.90;;;;;;;1.30;75.75;101090.81;105746;1104;76813;-76
2021/04/09 01:27:30;;;;;;;28.60;13.30;;;;;;;1.30;75.67;101089.95;105697;1105;78841;-75
2021/04/09 01:30:10;;;;;;;26.60;12.40;;;;;;;1.29;76.01;101085.62;105753;1105;78748;-75
2021/04/09 01:32:16;;;;;;;24.40;12.00;;;;;;;1.26;75.80;101084.03;105752;1105;78316;-76
2021/04/09 01:34:22;;;;;;;23.10;12.60;;;;;;;1.24;75.95;101087.78;105764;1105;78321;-76
2021/04/09 01:36:33;;;;;;;24.70;12.00;;;;;;;1.18;75.83;101081.91;105772;1104;78053;-75
2021/04/09 01:38:44;;;;;;;25.80;13.40;;;;;;;1.13;75.46;101083.21;105777;1105;79489;-75
2021/04/09 01:40:49;;;;;;;26.30;12.70;;;;;;;1.11;75.37;101080.68;105746;1105;77131;-76
2021/04/09 01:42:59;;;;;;;22.30;12.20;;;;;;;1.11;75.82;101079.83;105749;1105;78122;-76
2021/04/09 01:45:13;;;;;;;23.70;12.70;;;;;;;1.10;75.21;101091.42;105709;1104;78383;-76
2021/04/09 01:47:24;;;;;;;24.30;12.30;;;;;;;1.10;75.68;101092.27;105760;1104;77741;-76
2021/04/09 01:49:32;;;;;;;23.10;12.00;;;;;;;1.05;75.77;101085.59;105721;1105;78675;-76
2021/04/09 01:51:38;;;;;;;22.60;13.50;;;;;;;1.03;75.75;101087.52;105783;1105;79050;-75
2021/04/09 01:53:47;;;;;;;24.20;12.30;;;;;;;0.99;75.54;101086.06;105672;1107;78260;-72
2021/04/09 01:55:54;;;;;;;25.10;12.70;;;;;;;1.01;75.55;101089.45;105661;1105;78615;-78
2021/04/09 01:58:01;;;;;;;20.90;12.70;;;;;;;1.00;75.35;101080.61;105750;1105;77998;-78
2021/04/09 02:00:13;;;;;;;18.50;12.20;;;;;;;1.01;75.74;101079.66;105742;1105;78935;-77
2021/04/09 02:02:19;;;;;;;20.40;11.10;;;;;;;0.99;75.22;101075.42;105714;1105;78185;-78
2021/04/09 02:04:26;;;;;;;25.70;11.80;;;;;;;0.94;75.15;101078.39;105756;1104;78532;-79
2021/04/09 02:06:31;;;;;;;23.40;12.60;;;;;;;0.94;75.14;101081.05;105758;1105;77672;-81
2021/04/09 02:08:38;;;;;;;24.00;12.50;;;;;;;0.85;75.47;101087.03;105772;1105;78616;-82
2021/04/09 02:10:44;;;;;;;20.60;12.00;;;;;;;0.81;75.22;101079.39;105815;1104;76813;-79
2021/04/09 02:12:52;;;;;;;22.10;10.50;;;;;;;0.78;75.39;101080.47;105753;1105;78906;-80
2021/04/09 02:14:58;;;;;;;22.70;12.00;;;;;;;0.76;75.38;101086.86;105763;1104;77475;-80
2021/04/09 02:17:03;;;;;;;28.40;12.60;;;;;;;0.76;75.03;101073.56;105722;1106;77473;-72
2021/04/09 02:19:09;;;;;;;23.70;11.50;;;;;;;0.72;75.06;101083.56;105774;1104;78668;-71
2021/04/09 02:21:14;;;;;;;20.70;10.60;;;;;;;0.71;75.24;101081.88;105780;1105;77801;-71
2021/04/09 02:23:19;;;;;;;17.10;10.70;;;;;;;0.69;75.18;101074.98;105747;1105;78880;-71
2021/04/09 02:25:24;;;;;;;21.20;11.10;;;;;;;0.65;75.29;101087.63;105754;1105;77670;-71
2021/04/09 02:27:30;;;;;;;22.90;11.60;;;;;;;0.62;75.17;101079.88;105742;1104;77940;-72
2021/04/09 02:29:35;;;;;;;22.40;11.00;;;;;;;0.58;75.09;101081.89;105702;1104;78569;-72
2021/04/09 02:31:45;;;;;;;23.60;10.50;;;;;;;0.54;75.08;101079.56;105742;1104;79733;-80
2021/04/09 02:33:51;;;;;;;20.80;11.00;;;;;;;0.47;75.03;101081.80;105724;1105;78682;-81
2021/04/09 02:36:00;;;;;;;20.00;11.70;;;;;;;0.43;75.26;101075.02;105798;1106;77269;-72
2021/04/09 02:38:05;;;;;;;17.20;10.40;;;;;;;0.35;75.19;101072.05;105759;1104;77627;-72
2021/04/09 02:40:16;;;;;;;23.10;11.70;;;;;;;0.36;75.37;101071.08;105755;1105;77447;-81
2021/04/09 02:42:22;;;;;;;24.80;11.70;;;;;;;0.33;75.60;101083.75;105816;1105;77106;-85
2021/04/09 02:44:27;;;;;;;20.20;10.40;;;;;;;0.28;75.57;101075.22;105757;1105;78519;-83
2021/04/09 02:46:43;;;;;;;21.60;11.00;;;;;;;0.23;75.57;101070.23;105748;1105;77699;-71
2021/04/09 02:48:56;;;;;;;21.80;11.70;;;;;;;0.20;75.53;101075.77;105709;1105;78621;-70
2021/04/09 02:51:07;;;;;;;24.30;11.30;;;;;;;0.18;75.85;101075.03;105736;1105;78933;-70
2021/04/09 02:53:18;;;;;;;23.50;11.80;;;;;;;0.18;75.27;101072.38;105744;1105;78840;-71
2021/04/09 02:55:27;;;;;;;27.20;11.10;;;;;;;0.24;75.85;101076.41;105772;1104;77799;-84
2021/04/09 02:57:34;;;;;;;19.30;10.00;;;;;;;0.24;76.01;101071.95;105705;1105;77923;-80
2021/04/09 02:59:43;;;;;;;22.30;11.40;;;;;;;0.25;75.97;101068.31;105719;1104;77508;-76
2021/04/09 03:01:52;;;;;;;22.30;10.50;;;;;;;0.28;75.43;101077.88;105754;1105;78991;-75
2021/04/09 03:03:58;;;;;;;19.80;10.60;;;;;;;0.29;75.68;101068.96;105716;1104;78718;-81
2021/04/09 03:06:04;;;;;;;24.70;11.40;;;;;;;0.27;75.44;101066.42;105664;1105;78433;-70
2021/04/09 03:08:11;;;;;;;19.80;10.10;;;;;;;0.30;76.16;101074.16;105009;1107;77464;-69
2021/04/09 03:10:18;;;;;;;21.70;10.80;;;;;;;0.27;75.48;101070.88;105745;1104;76805;-76
2021/04/09 03:12:23;;;;;;;21.40;10.40;;;;;;;0.26;75.69;101070.03;105758;1105;78700;-78
2021/04/09 03:14:32;;;;;;;23.20;10.90;;;;;;;0.25;75.75;101068.31;105772;1105;76908;-77
2021/04/09 03:16:44;;;;;;;19.10;9.90;;;;;;;0.25;76.69;101067.49;105689;1104;78890;-73
2021/04/09 03:18:50;;;;;;;21.10;10.60;;;;;;;0.24;76.28;101076.41;105724;1105;78547;-73
2021/04/09 03:20:58;;;;;;;21.10;9.30;;;;;;;0.26;75.93;101079.80;105768;1104;77049;-75
2021/04/09 03:23:04;;;;;;;16.50;9.30;;;;;;;0.23;76.18;101075.55;105759;1104;78206;-74
2021/04/09 03:25:11;;;;;;;22.20;10.30;;;;;;;0.23;76.60;101077.36;105767;1104;77136;-74
2021/04/09 03:27:16;;;;;;;18.90;10.10;;;;;;;0.24;75.78;101074.61;105762;1105;78312;-74
2021/04/09 03:29:21;;;;;;;17.00;9.70;;;;;;;0.28;76.34;101069.91;105762;1105;78629;-74
2021/04/09 03:31:29;;;;;;;21.60;9.60;;;;;;;0.29;76.32;101068.96;105763;1104;79347;-74
2021/04/09 03:33:34;;;;;;;21.80;10.00;;;;;;;0.27;76.19;101071.74;105737;1104;76932;-73
2021/04/09 03:35:42;;;;;;;17.50;8.50;;;;;;;0.25;76.37;101064.84;105758;1104;79037;-74
2021/04/09 03:37:48;;;;;;;20.00;9.20;;;;;;;0.31;75.75;101059.92;105746;1105;78086;-73
2021/04/09 03:39:53;;;;;;;17.90;9.50;;;;;;;0.30;75.67;101060.88;105781;1105;77441;-73
2021/04/09 03:41:58;;;;;;;19.20;10.10;;;;;;;0.29;75.54;101063.65;105771;1105;77400;-78
2021/04/09 03:44:03;;;;;;;22.30;10.40;;;;;;;0.28;75.64;101062.80;105737;1105;78237;-79
2021/04/09 03:46:08;;;;;;;18.50;9.00;;;;;;;0.31;75.82;101064.38;105736;1104;77525;-78
2021/04/09 03:48:13;;;;;;;17.20;9.20;;;;;;;0.31;75.90;101062.58;105747;1105;79142;-76
2021/04/09 03:50:19;;;;;;;17.40;8.80;;;;;;;0.31;76.00;101061.72;105794;1104;77927;-78
2021/04/09 03:52:24;;;;;;;19.20;8.80;;;;;;;0.30;75.70;101062.70;105765;1105;78297;-77
2021/04/09 03:54:29;;;;;;;17.20;8.30;;;;;;;0.34;75.91;101061.52;105761;1104;77863;-78
2021/04/09 03:56:35;;;;;;;21.10;8.70;;;;;;;0.38;76.07;101063.86;105765;1105;78531;-77
2021/04/09 03:58:40;;;;;;;16.00;8.30;;;;;;;0.42;76.30;101064.47;105770;1105;77072;-78
2021/04/09 04:00:45;;;;;;;15.60;8.30;;;;;;;0.43;75.59;101063.53;105760;1105;76734;-78
2021/04/09 04:02:52;;;;;;;14.60;7.90;;;;;;;0.41;75.92;101058.30;105783;1105;77676;-79
2021/04/09 04:04:57;;;;;;;16.30;8.20;;;;;;;0.40;75.89;101061.94;105624;1105;78226;-78
2021/04/09 04:07:02;;;;;;;19.00;8.70;;;;;;;0.42;75.92;101062.67;105802;1105;77146;-79
2021/04/09 04:09:08;;;;;;;15.40;8.40;;;;;;;0.48;75.71;101058.73;105742;1104;78105;-80
2021/04/09 04:11:13;;;;;;;15.50;8.60;;;;;;;0.55;76.04;101063.50;105691;1104;78462;-73
2021/04/09 04:13:23;;;;;;;17.40;8.10;;;;;;;0.62;75.54;101060.41;105747;1105;77878;-74
2021/04/09 04:15:28;;;;;;;17.80;8.30;;;;;;;0.59;75.85;101067.65;105754;1104;78359;-77
2021/04/09 04:17:35;;;;;;;15.20;8.20;;;;;;;0.69;75.88;101061.69;105701;1106;78270;-77
2021/04/09 04:19:40;;;;;;;16.20;9.00;;;;;;;0.76;75.32;101065.59;105797;1105;77368;-78
2021/04/09 04:21:45;;;;;;;20.10;9.60;;;;;;;0.83;75.27;101066.83;105787;1105;79275;-73
2021/04/09 04:23:54;;;;;;;15.20;8.10;;;;;;;0.86;75.51;101067.47;105766;1104;78682;-74
2021/04/09 04:25:59;;;;;;;19.70;8.40;;;;;;;0.86;75.24;101070.13;105764;1104;78095;-74
2021/04/09 04:28:08;;;;;;;16.80;8.60;;;;;;;0.94;75.06;101073.08;105766;1105;77119;-73
2021/04/09 04:30:16;;;;;;;17.70;8.20;;;;;;;0.98;75.46;101073.71;105781;1105;78506;-73
2021/04/09 04:32:21;;;;;;;15.40;8.20;;;;;;;1.03;75.41;101068.89;105699;1104;78824;-72
2021/04/09 04:34:26;;;;;;;20.20;9.20;;;;;;;1.10;75.33;101072.80;105745;1105;78089;-72
2021/04/09 04:36:31;;;;;;;16.80;7.90;;;;;;;1.39;75.64;101068.84;105699;1104;78251;-73
2021/04/09 04:38:39;;;;;;;15.10;8.30;;;;;;;2.19;75.57;101065.31;105745;1105;77615;-74
2021/04/09 04:40:45;;;;;;;142.60;85.40;;;;;;;3.11;75.22;101064.98;105761;1105;77144;-77
2021/04/09 04:42:50;;;;;;;39.70;21.70;;;;;;;3.85;74.57;101074.76;105719;1106;78908;-77
2021/04/09 04:44:56;;;;;;;19.70;11.20;;;;;;;4.60;74.25;101063.78;105749;1104;78012;-78
2021/04/09 04:47:01;;;;;;;16.30;8.10;;;;;;;5.19;73.15;101072.67;105785;1104;77056;-73
2021/04/09 04:49:07;;;;;;;16.70;8.90;;;;;;;5.84;72.80;101069.34;105750;1105;78946;-74
2021/04/09 04:51:12;;;;;;;14.00;8.10;;;;;;;6.44;71.70;101068.11;105735;1104;78812;-74
2021/04/09 04:53:17;;;;;;;14.60;7.80;;;;;;;7.02;70.54;101066.00;105730;1104;78800;-73
2021/04/09 04:55:22;;;;;;;15.00;7.80;;;;;;;7.67;69.16;101067.52;105740;1105;78842;-76
2021/04/09 04:57:30;;;;;;;13.20;7.20;;;;;;;8.14;67.65;101065.38;105759;1105;78313;-75
2021/04/09 04:59:38;;;;;;;10.90;7.30;;;;;;;8.30;67.20;101072.74;105708;1105;78369;-78
2021/04/09 05:01:43;;;;;;;15.70;7.60;;;;;;;8.39;65.73;101071.80;105762;1105;78431;-79
2021/04/09 05:03:48;;;;;;;12.10;7.80;;;;;;;8.17;65.43;101067.76;105064;1107;78358;-79
2021/04/09 05:05:53;;;;;;;13.60;7.40;;;;;;;8.28;64.78;101072.91;105724;1105;77703;-80
2021/04/09 05:07:58;;;;;;;12.70;7.60;;;;;;;8.28;64.11;101067.53;105716;1105;78128;-78
2021/04/09 05:10:09;;;;;;;11.00;7.10;;;;;;;8.53;64.07;101073.91;105731;1105;78453;-79
2021/04/09 05:12:15;;;;;;;12.00;7.70;;;;;;;8.79;63.05;101065.77;105748;1105;77032;-72
2021/04/09 05:14:20;;;;;;;11.40;6.60;;;;;;;8.90;62.65;101066.34;105733;1104;76978;-72
2021/04/09 05:16:25;;;;;;;13.70;7.20;;;;;;;8.96;60.43;101058.61;105738;1105;78640;-79
2021/04/09 05:18:33;;;;;;;13.70;7.50;;;;;;;9.36;61.02;101066.84;105738;1105;77902;-78
2021/04/09 05:20:38;;;;;;;12.10;7.00;;;;;;;9.92;61.06;101049.84;105732;1104;78675;-77
2021/04/09 05:22:43;;;;;;;12.10;7.50;;;;;;;10.80;59.97;101051.55;105763;1104;77731;-78
2021/04/09 05:24:49;;;;;;;12.50;7.50;;;;;;;10.96;58.39;101053.37;105755;1104;77457;-78
2021/04/09 05:26:54;;;;;;;13.70;7.30;;;;;;;11.92;57.36;101043.78;105664;1107;78616;-79
2021/04/09 05:29:02;;;;;;;11.50;7.20;;;;;;;12.57;56.19;101046.71;105738;1105;78398;-80
2021/04/09 05:31:07;;;;;;;14.50;7.40;;;;;;;12.83;55.24;101040.80;105751;1104;78372;-80
2021/04/09 05:33:14;;;;;;;11.90;7.00;;;;;;;13.48;54.88;101040.81;105760;1105;77609;-73
2021/04/09 05:35:20;;;;;;;12.50;8.10;;;;;;;13.93;53.21;101037.69;105731;1105;77536;-71
2021/04/09 05:37:25;;;;;;;11.60;6.70;;;;;;;14.32;50.75;101042.64;105775;1104;78893;-71
2021/04/09 05:39:30;;;;;;;12.30;7.10;;;;;;;14.38;50.36;101044.58;105768;1106;76999;-80
2021/04/09 05:41:35;;;;;;;10.90;7.70;;;;;;;14.50;46.85;101045.69;105770;1105;78117;-80
2021/04/09 05:43:40;;;;;;;10.40;6.70;;;;;;;14.59;48.78;101041.78;105761;1104;78507;-80
2021/04/09 05:45:45;;;;;;;12.40;7.60;;;;;;;15.09;47.98;101048.75;105724;1105;77534;-72
2021/04/09 05:47:54;;;;;;;13.80;8.70;;;;;;;15.58;47.62;101045.80;105767;1105;77645;-72
2021/04/09 05:49:59;;;;;;;12.00;8.30;;;;;;;16.04;46.66;101040.39;105809;1105;78648;-79
2021/04/09 05:52:06;;;;;;;12.20;7.20;;;;;;;15.96;44.95;101045.23;105143;1107;78196;-78
2021/04/09 05:54:15;;;;;;;11.60;7.60;;;;;;;16.06;44.54;101051.95;105798;1105;78774;-73
2021/04/09 05:56:20;;;;;;;10.20;7.50;;;;;;;16.27;43.84;101043.55;105789;1106;77805;-73
2021/04/09 05:58:25;;;;;;;9.60;7.40;;;;;;;16.51;45.05;101042.89;105872;1105;78118;-74
2021/04/09 06:00:30;;;;;;;11.80;7.00;;;;;;;16.94;43.06;101040.53;105687;1105;78539;-74
2021/04/09 06:02:35;;;;;;;13.90;7.50;;;;;;;17.09;42.96;101046.55;105750;1104;77048;-74
2021/04/09 06:04:44;;;;;;;9.90;6.60;;;;;;;16.80;41.73;101043.50;105770;1105;78470;-74
2021/04/09 06:06:49;;;;;;;12.50;7.90;;;;;;;15.87;42.47;101042.72;105853;1105;77304;-73
2021/04/09 06:08:57;;;;;;;12.40;7.30;;;;;;;16.07;41.56;101044.62;105784;1106;76979;-72
2021/04/09 06:11:03;;;;;;;11.70;7.40;;;;;;;16.08;41.99;101038.94;105858;1104;77287;-72
2021/04/09 06:13:15;;;;;;;10.90;7.60;;;;;;;16.45;41.86;101042.92;105762;1105;78319;-75
2021/04/09 06:15:21;;;;;;;11.30;7.20;;;;;;;15.98;41.77;101040.41;105151;1107;78669;-80
2021/04/09 06:17:26;;;;;;;10.50;6.80;;;;;;;16.12;40.73;101042.94;105975;1105;77442;-82
2021/04/09 06:19:31;;;;;;;10.50;7.10;;;;;;;16.34;41.68;101038.11;105829;1104;77976;-72
2021/04/09 06:21:37;;;;;;;12.10;7.10;;;;;;;17.10;41.10;101041.92;105845;1105;77883;-73
2021/04/09 06:23:45;;;;;;;10.30;7.00;;;;;;;17.24;39.81;101049.02;105867;1105;77712;-83
2021/04/09 06:25:51;;;;;;;11.00;6.20;;;;;;;17.68;40.38;101037.25;105748;1105;78093;-84
2021/04/09 06:27:59;;;;;;;10.60;7.80;;;;;;;18.19;39.57;101031.59;105782;1104;79218;-83
2021/04/09 06:30:07;;;;;;;11.30;7.20;;;;;;;18.54;39.32;101040.96;105786;1104;78763;-72
2021/04/09 06:32:15;;;;;;;12.00;7.00;;;;;;;18.62;38.96;101034.38;105772;1105;78072;-71
2021/04/09 06:34:20;;;;;;;11.70;6.60;;;;;;;18.71;38.43;101028.38;105800;1105;77520;-73
2021/04/09 06:36:26;;;;;;;10.80;7.30;;;;;;;18.42;38.51;101029.08;105759;1105;79147;-72
2021/04/09 06:38:31;;;;;;;13.30;7.30;;;;;;;17.63;36.81;101028.88;105775;1104;77834;-70
2021/04/09 06:40:36;;;;;;;10.50;7.30;;;;;;;17.13;37.91;101037.92;105738;1105;78539;-72
2021/04/09 06:42:44;;;;;;;11.30;7.50;;;;;;;17.06;37.74;101033.32;105771;1105;76873;-74
2021/04/09 06:44:59;;;;;;;12.10;7.50;;;;;;;16.76;37.74;101031.32;105787;1105;78378;-75
2021/04/09 06:47:08;;;;;;;10.20;7.20;;;;;;;17.10;37.78;101028.27;105659;1105;77680;-74
2021/04/09 06:49:13;;;;;;;11.90;7.20;;;;;;;16.90;36.95;101043.88;105826;1105;77447;-74
2021/04/09 06:51:20;;;;;;;9.90;7.10;;;;;;;16.78;37.72;101027.36;105786;1105;78908;-74
2021/04/09 06:53:26;;;;;;;9.90;6.70;;;;;;;16.89;37.55;101040.30;105796;1105;77768;-71
2021/04/09 06:55:31;;;;;;;8.40;6.70;;;;;;;16.54;37.81;101030.75;105771;1105;78968;-70
2021/04/09 06:57:38;;;;;;;10.00;7.30;;;;;;;16.67;37.96;101021.71;105769;1105;78404;-71
2021/04/09 06:59:46;;;;;;;9.10;7.50;;;;;;;17.10;37.58;101029.13;105776;1104;77443;-72
2021/04/09 07:01:51;;;;;;;9.40;7.70;;;;;;;17.67;36.38;101021.89;105093;1105;77416;-72
2021/04/09 07:03:57;;;;;;;10.00;6.90;;;;;;;17.85;36.14;101029.36;105765;1104;78847;-72
2021/04/09 07:06:02;;;;;;;10.80;7.60;;;;;;;18.19;36.72;101012.44;105774;1105;78855;-72
2021/04/09 07:08:09;;;;;;;10.40;7.60;;;;;;;18.55;35.62;101014.44;105753;1105;78430;-74
2021/04/09 07:10:15;;;;;;;12.50;7.70;;;;;;;19.33;35.58;101010.77;105778;1105;78327;-72
2021/04/09 07:12:26;;;;;;;12.20;7.90;;;;;;;19.74;34.86;100998.18;105087;1105;78735;-72
2021/04/09 07:14:52;;;;;;;8.80;7.40;;;;;;;19.35;34.20;101010.52;105783;1105;77541;-72
2021/04/09 07:17:03;;;;;;;12.90;7.80;;;;;;;18.97;33.68;101002.59;105815;1105;76762;-72
2021/04/09 07:19:09;;;;;;;8.80;6.20;;;;;;;18.84;33.19;101006.31;105804;1104;78662;-71
2021/04/09 07:21:32;;;;;;;14.30;7.50;;;;;;;18.25;33.67;101000.61;105789;1105;76927;-71
2021/04/09 07:23:37;;;;;;;;;;;;;;;17.91;33.25;100999.22;105756;1104;78130;-73
2021/04/09 07:25:45;;;;;;;10.30;7.00;;;;;;;18.09;34.78;100996.55;105775;1105;79232;-72
2021/04/09 07:28:07;;;;;;;8.90;6.40;;;;;;;18.52;33.69;100995.73;105745;1104;78625;-72
2021/04/09 07:30:25;;;;;;;8.40;6.50;;;;;;;18.75;34.01;100995.91;105063;1106;78195;-76
2021/04/09 07:32:34;;;;;;;14.60;6.70;;;;;;;19.34;32.58;100995.98;105800;1104;77648;-75
2021/04/09 07:34:53;;;;;;;9.30;6.90;;;;;;;19.35;33.53;100981.22;105759;1105;78810;-72
2021/04/09 07:37:05;;;;;;;8.10;6.00;;;;;;;19.70;33.20;100991.48;105706;1104;77913;-72
2021/04/09 07:39:13;;;;;;;7.70;6.20;;;;;;;19.78;32.69;100991.98;105881;1104;77337;-77
2021/04/09 07:41:20;;;;;;;8.60;6.00;;;;;;;19.92;32.58;100984.38;105793;1105;79544;-76
2021/04/09 07:43:28;;;;;;;7.20;5.40;;;;;;;20.01;32.63;100972.00;105799;1105;78237;-76
2021/04/09 07:45:33;;;;;;;8.10;5.90;;;;;;;20.59;31.82;100978.34;105780;1105;78749;-77
2021/04/09 07:47:40;;;;;;;7.40;5.50;;;;;;;20.91;30.99;100983.40;105718;1105;76613;-77
2021/04/09 07:49:48;;;;;;;8.10;5.50;;;;;;;21.78;30.33;100990.37;105847;1105;76696;-77
2021/04/09 07:52:10;;;;;;;7.20;4.30;;;;;;;21.73;29.30;100974.59;105801;1105;77494;-77
2021/04/09 07:54:25;;;;;;;9.30;5.20;;;;;;;22.09;28.97;100965.04;105801;1105;77967;-76
2021/04/09 07:56:44;;;;;;;7.60;4.80;;;;;;;22.60;26.34;100965.80;105768;1104;77952;-76
2021/04/09 07:58:58;;;;;;;7.40;5.30;;;;;;;21.99;27.11;100955.80;105737;1105;78770;-76
2021/04/09 08:01:18;;;;;;;6.60;4.80;;;;;;;22.15;27.81;100960.45;105055;1107;78296;-74
2021/04/09 08:03:38;;;;;;;6.10;4.70;;;;;;;23.01;26.89;100948.73;105760;1104;77959;-72
2021/04/09 08:06:06;;;;;;;6.80;4.70;;;;;;;23.76;24.69;100948.69;105876;1105;77818;-76
2021/04/09 08:08:19;;;;;;;6.90;4.10;;;;;;;23.28;26.08;100951.52;105870;1104;79001;-76
2021/04/09 08:10:32;;;;;;;6.00;4.40;;;;;;;23.19;25.58;100944.78;105872;1104;79970;-80
2021/04/09 08:12:41;;;;;;;6.50;4.60;;;;;;;23.61;25.71;100950.50;105857;1104;79900;-76
2021/04/09 08:14:48;;;;;;;5.80;4.30;;;;;;;24.03;25.70;100948.66;105842;1104;79415;-70
2021/04/09 08:17:10;;;;;;;7.30;4.90;;;;;;;24.16;25.38;100945.47;105869;1105;78032;-68
2021/04/09 08:19:16;;;;;;;9.30;4.70;;;;;;;24.15;25.69;100943.80;105830;1105;78495;-67
2021/04/09 08:21:33;;;;;;;5.50;4.70;;;;;;;24.65;25.10;100929.45;105869;1105;76987;-77
2021/04/09 08:23:39;;;;;;;5.70;4.40;;;;;;;24.60;24.95;100930.27;105884;1105;78174;-74
2021/04/09 08:25:46;;;;;;;5.80;4.40;;;;;;;24.56;25.19;100928.30;105852;1104;78764;-72
2021/04/09 08:27:53;;;;;;;5.60;4.40;;;;;;;24.91;24.98;100925.75;105862;1105;77611;-71
2021/04/09 08:30:04;;;;;;;5.40;4.30;;;;;;;24.79;22.77;100936.19;104993;1107;79850;-69
2021/04/09 08:32:26;;;;;;;5.00;4.00;;;;;;;23.86;22.68;100921.20;105803;1105;76820;-72
2021/04/09 08:34:35;;;;;;;7.60;3.90;;;;;;;23.33;23.91;100912.95;105019;1107;78870;-72
2021/04/09 08:36:44;;;;;;;9.30;4.10;;;;;;;23.25;24.04;100918.94;105078;1107;78148;-75
2021/04/09 08:38:57;;;;;;;9.30;4.50;;;;;;;23.03;23.64;100920.91;104963;1108;78960;-78
2021/04/09 08:41:05;;;;;;;5.00;4.00;;;;;;;22.55;23.30;100916.17;105770;1105;76809;-75
2021/04/09 08:43:14;;;;;;;5.40;4.40;;;;;;;21.76;23.14;100899.83;105263;1107;78638;-74
2021/04/09 08:45:22;;;;;;;6.20;3.90;;;;;;;21.18;22.81;100930.42;105770;1105;78950;-76
2021/04/09 08:47:30;;;;;;;5.60;3.40;;;;;;;20.58;23.10;100920.92;105730;1105;78758;-77
2021/04/09 08:49:42;;;;;;;6.70;4.00;;;;;;;19.28;24.46;100919.38;105780;1105;78719;-77
2021/04/09 08:51:51;;;;;;;8.10;4.70;;;;;;;17.95;25.47;100920.34;105578;1100;78834;-74
2021/04/09 08:54:16;;;;;;;6.50;4.30;;;;;;;18.43;25.84;100920.48;105825;1104;76992;-78
2021/04/09 08:56:36;;;;;;;6.40;3.80;;;;;;;18.65;26.67;100902.56;105760;1106;77024;-76
2021/04/09 08:58:47;;;;;;;4.00;3.10;;;;;;;19.02;27.13;100892.36;105256;1105;78073;-77
2021/04/09 09:00:55;;;;;;;4.50;3.70;;;;;;;20.07;26.35;100887.92;105246;1107;78776;-77
2021/04/09 09:03:00;;;;;;;6.30;4.00;;;;;;;19.28;25.71;100881.84;105761;1105;76956;-78
2021/04/09 09:05:13;;;;;;;5.70;3.50;;;;;;;19.49;26.36;100883.24;105650;1104;78576;-77
2021/04/09 09:08:06;;;;;;;5.10;3.50;;;;;;;19.86;27.10;100883.88;105757;1104;78817;-77
2021/04/09 09:10:56;;;;;;;6.10;3.50;;;;;;;20.83;26.63;100873.92;105345;1105;78359;-78
2021/04/09 09:13:05;;;;;;;7.40;4.50;;;;;;;20.47;22.74;100880.60;104936;1109;78380;-78
2021/04/09 09:15:50;;;;;;;5.50;3.60;;;;;;;19.48;24.14;100880.72;105740;1105;79069;-78
2021/04/09 09:17:58;;;;;;;5.90;4.20;;;;;;;18.79;25.45;100882.14;105689;1105;78321;-78
2021/04/09 09:20:14;;;;;;;6.50;4.60;;;;;;;18.38;25.98;100871.06;105670;1107;78194;-75
2021/04/09 09:22:23;;;;;;;7.20;4.10;;;;;;;18.79;26.47;100879.41;105726;1105;78379;-73
2021/04/09 09:24:29;;;;;;;7.30;3.90;;;;;;;18.23;25.99;100868.73;105730;1105;77522;-72
2021/04/09 09:26:40;;;;;;;6.60;4.30;;;;;;;18.32;26.58;100869.27;105724;1105;79267;-72
2021/04/09 09:28:46;;;;;;;7.50;5.40;;;;;;;18.33;25.89;100865.44;105089;1107;77372;-71
2021/04/09 09:30:55;;;;;;;8.60;5.10;;;;;;;18.01;25.24;100859.30;105780;1104;77403;-72
2021/04/09 09:33:27;;;;;;;7.00;4.50;;;;;;;17.42;26.60;100878.92;105751;1104;77375;-71
2021/04/09 09:36:06;;;;;;;8.60;5.10;;;;;;;16.37;26.82;100863.98;105738;1105;78940;-73
2021/04/09 09:38:31;;;;;;;8.20;4.60;;;;;;;16.27;27.60;100866.33;105771;1104;77286;-72
2021/04/09 09:40:44;;;;;;;7.90;5.70;;;;;;;15.81;28.32;100863.73;105727;1105;77551;-70
2021/04/09 09:42:49;;;;;;;9.40;5.60;;;;;;;15.91;28.68;100839.59;105750;1105;79647;-72
2021/04/09 09:44:56;;;;;;;7.30;4.50;;;;;;;15.93;29.06;100856.56;105751;1104;77368;-71
2021/04/09 09:47:17;;;;;;;10.10;5.50;;;;;;;15.90;29.38;100848.00;105691;1105;78052;-77
2021/04/09 09:49:23;;;;;;;7.80;5.70;;;;;;;15.71;29.40;100857.86;105473;1105;77289;-76
2021/04/09 09:51:36;;;;;;;6.40;5.10;;;;;;;15.70;29.50;100850.75;105733;1105;78456;-77